sensor_id;sensor_type;location;lat;lon;timestamp;P1;durP1;ratioP1;P2;durP2;ratioP2
23680;SDS011;62915;50.832;4.462;2022-11-25T00:01:08;13.68;;;3.78;;
23680;SDS011;62915;50.832;4.462;2022-11-25T00:03:35;20.05;;;2.90;;
23680;SDS011;62915;50.832;4.462;2022-11-25T00:06:08;16.13;;;3.58;;
23680;SDS011;62915;50.832;4.462;2022-11-25T00:08:41;18.77;;;3.10;;
23680;SDS011;62915;50.832;4.462;2022-11-25T00:11:09;14.45;;;3.30;;
23680;SDS011;62915;50.832;4.462;2022-11-25T00:13:36;14.20;;;3.03;;
23680;SDS011;62915;50.832;4.462;2022-11-25T00:16:03;17.10;;;3.13;;
23680;SDS011;62915;50.832;4.462;2022-11-25T00:18:31;12.93;;;3.40;;
23680;SDS011;62915;50.832;4.462;2022-11-25T00:20:57;11.25;;;2.75;;
23680;SDS011;62915;50.832;4.462;2022-11-25T00:23:23;15.85;;;3.05;;
23680;SDS011;62915;50.832;4.462;2022-11-25T00:25:51;9.98;;;2.47;;
23680;SDS011;62915;50.832;4.462;2022-11-25T00:28:16;16.60;;;3.33;;
23680;SDS011;62915;50.832;4.462;2022-11-25T00:30:43;16.67;;;3.20;;
23680;SDS011;62915;50.832;4.462;2022-11-25T00:33:09;13.75;;;3.53;;
23680;SDS011;62915;50.832;4.462;2022-11-25T00:35:34;10.20;;;3.35;;
23680;SDS011;62915;50.832;4.462;2022-11-25T00:38:00;13.05;;;2.88;;
23680;SDS011;62915;50.832;4.462;2022-11-25T00:40:26;12.90;;;2.95;;
23680;SDS011;62915;50.832;4.462;2022-11-25T00:42:51;16.83;;;2.92;;
23680;SDS011;62915;50.832;4.462;2022-11-25T00:45:36;15.65;;;3.67;;
23680;SDS011;62915;50.832;4.462;2022-11-25T00:48:02;16.33;;;3.45;;
23680;SDS011;62915;50.832;4.462;2022-11-25T00:50:27;15.07;;;3.53;;
23680;SDS011;62915;50.832;4.462;2022-11-25T00:52:53;21.70;;;3.90;;
23680;SDS011;62915;50.832;4.462;2022-11-25T00:55:19;20.45;;;3.72;;
23680;SDS011;62915;50.832;4.462;2022-11-25T00:57:45;10.02;;;2.28;;
23680;SDS011;62915;50.832;4.462;2022-11-25T01:00:10;10.45;;;1.67;;
23680;SDS011;62915;50.832;4.462;2022-11-25T01:02:36;9.20;;;1.77;;
23680;SDS011;62915;50.832;4.462;2022-11-25T01:05:02;5.13;;;1.30;;
23680;SDS011;62915;50.832;4.462;2022-11-25T01:07:28;10.02;;;1.48;;
23680;SDS011;62915;50.832;4.462;2022-11-25T01:09:54;4.28;;;1.17;;
23680;SDS011;62915;50.832;4.462;2022-11-25T01:12:21;5.80;;;1.05;;
23680;SDS011;62915;50.832;4.462;2022-11-25T01:14:46;6.63;;;0.90;;
23680;SDS011;62915;50.832;4.462;2022-11-25T01:17:12;2.92;;;1.13;;
23680;SDS011;62915;50.832;4.462;2022-11-25T01:19:38;3.90;;;1.08;;
23680;SDS011;62915;50.832;4.462;2022-11-25T01:22:05;4.75;;;1.33;;
23680;SDS011;62915;50.832;4.462;2022-11-25T01:24:32;5.63;;;1.52;;
23680;SDS011;62915;50.832;4.462;2022-11-25T01:26:57;4.15;;;1.20;;
23680;SDS011;62915;50.832;4.462;2022-11-25T01:29:23;4.47;;;1.20;;
23680;SDS011;62915;50.832;4.462;2022-11-25T01:31:49;2.95;;;0.80;;
23680;SDS011;62915;50.832;4.462;2022-11-25T01:34:16;3.13;;;0.80;;
23680;SDS011;62915;50.832;4.462;2022-11-25T01:36:47;8.55;;;1.25;;
23680;SDS011;62915;50.832;4.462;2022-11-25T01:39:17;4.00;;;1.00;;
23680;SDS011;62915;50.832;4.462;2022-11-25T01:41:44;1.83;;;0.90;;
23680;SDS011;62915;50.832;4.462;2022-11-25T01:46:55;3.10;;;1.00;;
23680;SDS011;62915;50.832;4.462;2022-11-25T01:54:27;5.13;;;0.90;;
23680;SDS011;62915;50.832;4.462;2022-11-25T01:57:01;4.72;;;1.25;;
23680;SDS011;62915;50.832;4.462;2022-11-25T01:59:31;4.35;;;1.20;;
23680;SDS011;62915;50.832;4.462;2022-11-25T02:02:01;4.68;;;1.30;;
23680;SDS011;62915;50.832;4.462;2022-11-25T02:04:29;2.88;;;1.23;;
23680;SDS011;62915;50.832;4.462;2022-11-25T02:06:58;3.38;;;1.00;;
23680;SDS011;62915;50.832;4.462;2022-11-25T02:09:29;3.13;;;0.90;;
23680;SDS011;62915;50.832;4.462;2022-11-25T02:11:55;4.95;;;1.10;;
23680;SDS011;62915;50.832;4.462;2022-11-25T02:14:22;1.85;;;0.95;;
23680;SDS011;62915;50.832;4.462;2022-11-25T02:16:49;3.55;;;1.02;;
23680;SDS011;62915;50.832;4.462;2022-11-25T02:19:38;2.88;;;0.90;;
23680;SDS011;62915;50.832;4.462;2022-11-25T02:22:10;4.78;;;1.00;;
23680;SDS011;62915;50.832;4.462;2022-11-25T02:24:45;5.32;;;1.10;;
23680;SDS011;62915;50.832;4.462;2022-11-25T02:27:14;3.58;;;1.02;;
23680;SDS011;62915;50.832;4.462;2022-11-25T02:29:40;2.83;;;0.90;;
23680;SDS011;62915;50.832;4.462;2022-11-25T02:32:07;2.08;;;0.82;;
23680;SDS011;62915;50.832;4.462;2022-11-25T02:34:33;1.80;;;0.95;;
23680;SDS011;62915;50.832;4.462;2022-11-25T02:36:59;3.25;;;1.08;;
23680;SDS011;62915;50.832;4.462;2022-11-25T02:39:25;3.00;;;0.98;;
23680;SDS011;62915;50.832;4.462;2022-11-25T02:41:53;6.82;;;1.17;;
23680;SDS011;62915;50.832;4.462;2022-11-25T02:44:23;2.53;;;0.85;;
23680;SDS011;62915;50.832;4.462;2022-11-25T02:46:48;0.77;;;0.70;;
23680;SDS011;62915;50.832;4.462;2022-11-25T02:49:14;3.85;;;0.98;;
23680;SDS011;62915;50.832;4.462;2022-11-25T02:51:41;1.63;;;0.85;;
23680;SDS011;62915;50.832;4.462;2022-11-25T02:54:09;2.53;;;0.98;;
23680;SDS011;62915;50.832;4.462;2022-11-25T02:56:36;2.05;;;0.77;;
23680;SDS011;62915;50.832;4.462;2022-11-25T02:59:04;3.47;;;0.90;;
23680;SDS011;62915;50.832;4.462;2022-11-25T03:01:30;3.17;;;1.00;;
23680;SDS011;62915;50.832;4.462;2022-11-25T03:03:56;3.20;;;1.10;;
23680;SDS011;62915;50.832;4.462;2022-11-25T03:06:22;4.35;;;1.00;;
23680;SDS011;62915;50.832;4.462;2022-11-25T03:08:48;3.95;;;1.05;;
23680;SDS011;62915;50.832;4.462;2022-11-25T03:11:14;4.43;;;1.15;;
23680;SDS011;62915;50.832;4.462;2022-11-25T03:13:40;6.05;;;1.25;;
23680;SDS011;62915;50.832;4.462;2022-11-25T03:16:06;2.70;;;0.82;;
23680;SDS011;62915;50.832;4.462;2022-11-25T03:18:32;3.25;;;1.08;;
23680;SDS011;62915;50.832;4.462;2022-11-25T03:20:58;2.50;;;1.10;;
23680;SDS011;62915;50.832;4.462;2022-11-25T03:23:24;4.68;;;1.50;;
23680;SDS011;62915;50.832;4.462;2022-11-25T03:25:50;5.47;;;1.35;;
23680;SDS011;62915;50.832;4.462;2022-11-25T03:28:16;4.72;;;1.75;;
23680;SDS011;62915;50.832;4.462;2022-11-25T03:30:42;8.40;;;1.55;;
23680;SDS011;62915;50.832;4.462;2022-11-25T03:33:08;11.15;;;1.92;;
23680;SDS011;62915;50.832;4.462;2022-11-25T03:35:34;7.65;;;1.80;;
23680;SDS011;62915;50.832;4.462;2022-11-25T03:37:59;13.43;;;2.20;;
23680;SDS011;62915;50.832;4.462;2022-11-25T03:40:25;10.23;;;2.58;;
23680;SDS011;62915;50.832;4.462;2022-11-25T03:42:51;5.10;;;1.77;;
23680;SDS011;62915;50.832;4.462;2022-11-25T03:45:17;11.20;;;2.05;;
23680;SDS011;62915;50.832;4.462;2022-11-25T03:47:44;10.88;;;2.08;;
23680;SDS011;62915;50.832;4.462;2022-11-25T03:50:11;10.50;;;2.17;;
23680;SDS011;62915;50.832;4.462;2022-11-25T03:52:37;10.15;;;2.28;;
23680;SDS011;62915;50.832;4.462;2022-11-25T03:55:04;10.10;;;2.30;;
23680;SDS011;62915;50.832;4.462;2022-11-25T03:57:30;7.13;;;1.83;;
23680;SDS011;62915;50.832;4.462;2022-11-25T03:59:57;9.85;;;2.03;;
23680;SDS011;62915;50.832;4.462;2022-11-25T04:02:22;8.68;;;2.50;;
23680;SDS011;62915;50.832;4.462;2022-11-25T04:04:48;8.10;;;2.20;;
23680;SDS011;62915;50.832;4.462;2022-11-25T04:07:14;10.48;;;2.50;;
23680;SDS011;62915;50.832;4.462;2022-11-25T04:09:40;10.48;;;2.55;;
23680;SDS011;62915;50.832;4.462;2022-11-25T04:12:05;11.10;;;2.58;;
23680;SDS011;62915;50.832;4.462;2022-11-25T04:14:50;7.10;;;2.13;;
23680;SDS011;62915;50.832;4.462;2022-11-25T04:17:15;12.88;;;2.45;;
23680;SDS011;62915;50.832;4.462;2022-11-25T04:19:41;6.53;;;2.40;;
23680;SDS011;62915;50.832;4.462;2022-11-25T04:22:07;6.80;;;2.80;;
23680;SDS011;62915;50.832;4.462;2022-11-25T04:24:32;9.43;;;2.67;;
23680;SDS011;62915;50.832;4.462;2022-11-25T04:26:58;7.95;;;2.63;;
23680;SDS011;62915;50.832;4.462;2022-11-25T04:29:24;8.15;;;2.22;;
23680;SDS011;62915;50.832;4.462;2022-11-25T04:31:50;10.23;;;2.78;;
23680;SDS011;62915;50.832;4.462;2022-11-25T04:34:15;9.65;;;2.72;;
23680;SDS011;62915;50.832;4.462;2022-11-25T04:36:41;11.98;;;2.22;;
23680;SDS011;62915;50.832;4.462;2022-11-25T04:39:07;11.32;;;2.42;;
23680;SDS011;62915;50.832;4.462;2022-11-25T04:41:33;10.45;;;2.78;;
23680;SDS011;62915;50.832;4.462;2022-11-25T04:43:59;8.00;;;2.25;;
23680;SDS011;62915;50.832;4.462;2022-11-25T04:46:26;6.55;;;2.00;;
23680;SDS011;62915;50.832;4.462;2022-11-25T04:49:00;8.77;;;2.85;;
23680;SDS011;62915;50.832;4.462;2022-11-25T04:51:26;8.65;;;3.55;;
23680;SDS011;62915;50.832;4.462;2022-11-25T04:53:51;11.68;;;2.97;;
23680;SDS011;62915;50.832;4.462;2022-11-25T04:56:17;12.88;;;2.65;;
23680;SDS011;62915;50.832;4.462;2022-11-25T04:58:44;7.28;;;2.33;;
23680;SDS011;62915;50.832;4.462;2022-11-25T05:01:29;9.65;;;2.63;;
23680;SDS011;62915;50.832;4.462;2022-11-25T05:03:55;10.48;;;2.38;;
23680;SDS011;62915;50.832;4.462;2022-11-25T05:06:21;14.00;;;3.00;;
23680;SDS011;62915;50.832;4.462;2022-11-25T05:08:47;8.68;;;2.90;;
23680;SDS011;62915;50.832;4.462;2022-11-25T05:11:13;13.68;;;2.40;;
23680;SDS011;62915;50.832;4.462;2022-11-25T05:13:39;11.95;;;2.40;;
23680;SDS011;62915;50.832;4.462;2022-11-25T05:16:05;10.98;;;2.55;;
23680;SDS011;62915;50.832;4.462;2022-11-25T05:18:31;15.30;;;3.08;;
23680;SDS011;62915;50.832;4.462;2022-11-25T05:21:03;9.77;;;2.65;;
23680;SDS011;62915;50.832;4.462;2022-11-25T05:23:30;5.75;;;2.05;;
23680;SDS011;62915;50.832;4.462;2022-11-25T05:25:59;7.75;;;1.98;;
23680;SDS011;62915;50.832;4.462;2022-11-25T05:28:26;6.95;;;2.53;;
23680;SDS011;62915;50.832;4.462;2022-11-25T05:30:52;6.97;;;2.35;;
23680;SDS011;62915;50.832;4.462;2022-11-25T05:33:18;7.45;;;2.70;;
23680;SDS011;62915;50.832;4.462;2022-11-25T05:35:46;10.40;;;2.35;;
23680;SDS011;62915;50.832;4.462;2022-11-25T05:38:27;12.15;;;2.78;;
23680;SDS011;62915;50.832;4.462;2022-11-25T05:40:58;5.13;;;1.92;;
23680;SDS011;62915;50.832;4.462;2022-11-25T05:43:25;6.55;;;2.28;;
23680;SDS011;62915;50.832;4.462;2022-11-25T05:45:51;8.68;;;2.53;;
23680;SDS011;62915;50.832;4.462;2022-11-25T05:48:17;6.80;;;2.08;;
23680;SDS011;62915;50.832;4.462;2022-11-25T05:50:43;7.22;;;1.85;;
23680;SDS011;62915;50.832;4.462;2022-11-25T05:53:08;12.13;;;2.38;;
23680;SDS011;62915;50.832;4.462;2022-11-25T05:55:35;12.30;;;2.42;;
23680;SDS011;62915;50.832;4.462;2022-11-25T05:58:01;10.35;;;2.42;;
23680;SDS011;62915;50.832;4.462;2022-11-25T06:00:28;5.50;;;2.38;;
23680;SDS011;62915;50.832;4.462;2022-11-25T06:02:54;11.63;;;2.20;;
23680;SDS011;62915;50.832;4.462;2022-11-25T06:05:20;6.47;;;2.00;;
23680;SDS011;62915;50.832;4.462;2022-11-25T06:07:46;7.85;;;2.10;;
23680;SDS011;62915;50.832;4.462;2022-11-25T06:10:12;11.23;;;2.70;;
23680;SDS011;62915;50.832;4.462;2022-11-25T06:12:38;10.07;;;2.42;;
23680;SDS011;62915;50.832;4.462;2022-11-25T06:15:03;9.35;;;2.88;;
23680;SDS011;62915;50.832;4.462;2022-11-25T06:17:30;12.38;;;2.70;;
23680;SDS011;62915;50.832;4.462;2022-11-25T06:19:55;10.40;;;2.22;;
23680;SDS011;62915;50.832;4.462;2022-11-25T06:22:21;14.13;;;2.50;;
23680;SDS011;62915;50.832;4.462;2022-11-25T06:24:47;5.43;;;2.22;;
23680;SDS011;62915;50.832;4.462;2022-11-25T06:27:12;11.45;;;3.05;;
23680;SDS011;62915;50.832;4.462;2022-11-25T06:29:38;10.07;;;2.75;;
23680;SDS011;62915;50.832;4.462;2022-11-25T06:32:04;19.77;;;3.70;;
23680;SDS011;62915;50.832;4.462;2022-11-25T06:34:30;11.77;;;2.90;;
23680;SDS011;62915;50.832;4.462;2022-11-25T06:36:55;8.23;;;2.50;;
23680;SDS011;62915;50.832;4.462;2022-11-25T06:39:21;16.58;;;2.85;;
23680;SDS011;62915;50.832;4.462;2022-11-25T06:41:48;5.53;;;2.33;;
23680;SDS011;62915;50.832;4.462;2022-11-25T06:44:13;15.32;;;3.72;;
23680;SDS011;62915;50.832;4.462;2022-11-25T06:46:39;13.82;;;2.78;;
23680;SDS011;62915;50.832;4.462;2022-11-25T06:49:05;10.77;;;2.92;;
23680;SDS011;62915;50.832;4.462;2022-11-25T06:51:31;11.40;;;2.60;;
23680;SDS011;62915;50.832;4.462;2022-11-25T06:53:57;10.40;;;2.83;;
23680;SDS011;62915;50.832;4.462;2022-11-25T06:56:24;8.68;;;2.67;;
23680;SDS011;62915;50.832;4.462;2022-11-25T06:58:52;12.02;;;2.88;;
23680;SDS011;62915;50.832;4.462;2022-11-25T07:01:19;10.13;;;2.95;;
23680;SDS011;62915;50.832;4.462;2022-11-25T07:03:53;10.70;;;2.80;;
23680;SDS011;62915;50.832;4.462;2022-11-25T07:06:24;13.35;;;2.67;;
23680;SDS011;62915;50.832;4.462;2022-11-25T07:08:49;10.50;;;2.70;;
23680;SDS011;62915;50.832;4.462;2022-11-25T07:11:26;13.80;;;3.35;;
23680;SDS011;62915;50.832;4.462;2022-11-25T07:14:04;11.60;;;2.83;;
23680;SDS011;62915;50.832;4.462;2022-11-25T07:16:30;15.00;;;3.03;;
23680;SDS011;62915;50.832;4.462;2022-11-25T07:18:58;16.55;;;3.25;;
23680;SDS011;62915;50.832;4.462;2022-11-25T07:21:26;13.40;;;3.05;;
23680;SDS011;62915;50.832;4.462;2022-11-25T07:23:53;13.23;;;3.20;;
23680;SDS011;62915;50.832;4.462;2022-11-25T07:26:23;11.88;;;2.92;;
23680;SDS011;62915;50.832;4.462;2022-11-25T07:28:54;12.27;;;3.00;;
23680;SDS011;62915;50.832;4.462;2022-11-25T07:31:24;17.65;;;3.67;;
23680;SDS011;62915;50.832;4.462;2022-11-25T07:33:58;9.77;;;3.67;;
23680;SDS011;62915;50.832;4.462;2022-11-25T07:36:28;16.85;;;2.95;;
23680;SDS011;62915;50.832;4.462;2022-11-25T07:38:56;15.70;;;3.20;;
23680;SDS011;62915;50.832;4.462;2022-11-25T07:41:24;14.13;;;3.63;;
23680;SDS011;62915;50.832;4.462;2022-11-25T07:43:52;13.15;;;3.03;;
23680;SDS011;62915;50.832;4.462;2022-11-25T07:48:52;16.60;;;3.40;;
23680;SDS011;62915;50.832;4.462;2022-11-25T07:51:21;11.82;;;3.17;;
23680;SDS011;62915;50.832;4.462;2022-11-25T07:53:49;17.02;;;3.55;;
23680;SDS011;62915;50.832;4.462;2022-11-25T07:56:16;18.33;;;3.38;;
23680;SDS011;62915;50.832;4.462;2022-11-25T07:58:43;13.45;;;3.58;;
23680;SDS011;62915;50.832;4.462;2022-11-25T08:01:10;16.92;;;4.25;;
23680;SDS011;62915;50.832;4.462;2022-11-25T08:03:37;16.10;;;3.20;;
23680;SDS011;62915;50.832;4.462;2022-11-25T08:06:05;13.85;;;3.75;;
23680;SDS011;62915;50.832;4.462;2022-11-25T08:08:33;17.83;;;3.42;;
23680;SDS011;62915;50.832;4.462;2022-11-25T08:11:00;22.38;;;3.67;;
23680;SDS011;62915;50.832;4.462;2022-11-25T08:13:25;15.00;;;3.63;;
23680;SDS011;62915;50.832;4.462;2022-11-25T08:15:51;24.08;;;4.10;;
23680;SDS011;62915;50.832;4.462;2022-11-25T08:18:17;15.38;;;3.50;;
23680;SDS011;62915;50.832;4.462;2022-11-25T08:20:43;18.45;;;3.95;;
23680;SDS011;62915;50.832;4.462;2022-11-25T08:23:09;13.05;;;3.30;;
23680;SDS011;62915;50.832;4.462;2022-11-25T08:25:38;17.83;;;3.47;;
23680;SDS011;62915;50.832;4.462;2022-11-25T08:28:05;16.60;;;3.78;;
23680;SDS011;62915;50.832;4.462;2022-11-25T08:30:31;12.60;;;3.67;;
23680;SDS011;62915;50.832;4.462;2022-11-25T08:32:57;16.70;;;4.30;;
23680;SDS011;62915;50.832;4.462;2022-11-25T08:35:24;12.32;;;4.10;;
23680;SDS011;62915;50.832;4.462;2022-11-25T08:37:50;23.02;;;4.50;;
23680;SDS011;62915;50.832;4.462;2022-11-25T08:40:15;18.25;;;5.03;;
23680;SDS011;62915;50.832;4.462;2022-11-25T08:42:41;18.52;;;5.05;;
23680;SDS011;62915;50.832;4.462;2022-11-25T08:45:07;18.05;;;5.30;;
23680;SDS011;62915;50.832;4.462;2022-11-25T08:47:35;16.00;;;5.20;;
23680;SDS011;62915;50.832;4.462;2022-11-25T08:50:01;15.32;;;4.38;;
23680;SDS011;62915;50.832;4.462;2022-11-25T08:52:33;19.98;;;5.03;;
23680;SDS011;62915;50.832;4.462;2022-11-25T08:54:58;15.43;;;4.63;;
23680;SDS011;62915;50.832;4.462;2022-11-25T08:57:24;14.32;;;4.57;;
23680;SDS011;62915;50.832;4.462;2022-11-25T08:59:50;18.50;;;4.63;;
23680;SDS011;62915;50.832;4.462;2022-11-25T09:02:16;13.57;;;4.40;;
23680;SDS011;62915;50.832;4.462;2022-11-25T09:04:42;14.73;;;3.95;;
23680;SDS011;62915;50.832;4.462;2022-11-25T09:07:08;19.85;;;4.20;;
23680;SDS011;62915;50.832;4.462;2022-11-25T09:09:34;16.30;;;4.18;;
23680;SDS011;62915;50.832;4.462;2022-11-25T09:12:00;9.45;;;3.40;;
23680;SDS011;62915;50.832;4.462;2022-11-25T09:14:26;12.02;;;3.50;;
23680;SDS011;62915;50.832;4.462;2022-11-25T09:16:51;12.23;;;3.53;;
23680;SDS011;62915;50.832;4.462;2022-11-25T09:19:18;11.05;;;2.72;;
23680;SDS011;62915;50.832;4.462;2022-11-25T09:21:44;11.20;;;2.85;;
23680;SDS011;62915;50.832;4.462;2022-11-25T09:24:10;10.55;;;2.63;;
23680;SDS011;62915;50.832;4.462;2022-11-25T09:26:35;7.20;;;1.83;;
23680;SDS011;62915;50.832;4.462;2022-11-25T09:29:04;8.73;;;1.83;;
23680;SDS011;62915;50.832;4.462;2022-11-25T09:31:31;15.25;;;3.10;;
23680;SDS011;62915;50.832;4.462;2022-11-25T09:33:58;10.00;;;2.13;;
23680;SDS011;62915;50.832;4.462;2022-11-25T09:36:24;11.88;;;2.42;;
23680;SDS011;62915;50.832;4.462;2022-11-25T09:38:49;11.75;;;2.83;;
23680;SDS011;62915;50.832;4.462;2022-11-25T09:55:51;8.18;;;2.25;;
23680;SDS011;62915;50.832;4.462;2022-11-25T09:58:29;6.82;;;2.00;;
23680;SDS011;62915;50.832;4.462;2022-11-25T10:01:06;10.63;;;1.98;;
23680;SDS011;62915;50.832;4.462;2022-11-25T10:03:46;8.32;;;2.13;;
23680;SDS011;62915;50.832;4.462;2022-11-25T10:06:18;6.03;;;1.70;;
23680;SDS011;62915;50.832;4.462;2022-11-25T10:08:57;8.25;;;2.40;;
23680;SDS011;62915;50.832;4.462;2022-11-25T10:16:54;6.22;;;1.83;;
23680;SDS011;62915;50.832;4.462;2022-11-25T10:19:25;5.18;;;1.70;;
23680;SDS011;62915;50.832;4.462;2022-11-25T10:24:47;5.05;;;1.67;;
23680;SDS011;62915;50.832;4.462;2022-11-25T10:27:21;5.65;;;1.42;;
23680;SDS011;62915;50.832;4.462;2022-11-25T10:29:55;4.38;;;1.20;;
23680;SDS011;62915;50.832;4.462;2022-11-25T10:32:26;3.53;;;1.42;;
23680;SDS011;62915;50.832;4.462;2022-11-25T10:35:02;3.95;;;1.15;;
23680;SDS011;62915;50.832;4.462;2022-11-25T10:37:38;5.50;;;1.45;;
23680;SDS011;62915;50.832;4.462;2022-11-25T10:40:16;4.63;;;1.38;;
23680;SDS011;62915;50.832;4.462;2022-11-25T10:42:42;4.90;;;1.67;;
23680;SDS011;62915;50.832;4.462;2022-11-25T10:45:08;3.53;;;1.63;;
23680;SDS011;62915;50.832;4.462;2022-11-25T10:53:01;4.03;;;1.30;;
23680;SDS011;62915;50.832;4.462;2022-11-25T10:55:58;5.75;;;1.42;;
23680;SDS011;62915;50.832;4.462;2022-11-25T10:58:33;13.52;;;1.85;;
23680;SDS011;62915;50.832;4.462;2022-11-25T11:03:39;7.78;;;2.00;;
23680;SDS011;62915;50.832;4.462;2022-11-25T11:06:05;6.10;;;1.98;;
23680;SDS011;62915;50.832;4.462;2022-11-25T11:08:37;5.50;;;1.80;;
23680;SDS011;62915;50.832;4.462;2022-11-25T11:13:46;8.50;;;2.42;;
23680;SDS011;62915;50.832;4.462;2022-11-25T11:21:46;5.28;;;1.63;;
23680;SDS011;62915;50.832;4.462;2022-11-25T11:27:33;11.18;;;2.65;;
23680;SDS011;62915;50.832;4.462;2022-11-25T11:29:43;6.72;;;2.35;;
23680;SDS011;62915;50.832;4.462;2022-11-25T11:32:21;9.40;;;2.90;;
23680;SDS011;62915;50.832;4.462;2022-11-25T11:37:51;11.52;;;2.72;;
23680;SDS011;62915;50.832;4.462;2022-11-25T11:46:16;10.45;;;2.70;;
23680;SDS011;62915;50.832;4.462;2022-11-25T11:56:38;8.30;;;2.35;;
23680;SDS011;62915;50.832;4.462;2022-11-25T12:10:19;14.15;;;3.28;;
23680;SDS011;62915;50.832;4.462;2022-11-25T12:12:59;10.05;;;3.13;;
23680;SDS011;62915;50.832;4.462;2022-11-25T12:15:54;11.70;;;2.87;;
23680;SDS011;62915;50.832;4.462;2022-11-25T12:18:42;15.98;;;3.60;;
23680;SDS011;62915;50.832;4.462;2022-11-25T12:21:16;13.32;;;3.42;;
23680;SDS011;62915;50.832;4.462;2022-11-25T12:26:49;17.10;;;3.40;;
23680;SDS011;62915;50.832;4.462;2022-11-25T12:38:03;13.48;;;3.25;;
23680;SDS011;62915;50.832;4.462;2022-11-25T12:43:57;13.02;;;2.88;;
23680;SDS011;62915;50.832;4.462;2022-11-25T12:49:28;9.05;;;3.13;;
23680;SDS011;62915;50.832;4.462;2022-11-25T12:52:05;14.23;;;3.08;;
23680;SDS011;62915;50.832;4.462;2022-11-25T13:00:46;11.80;;;3.78;;
23680;SDS011;62915;50.832;4.462;2022-11-25T13:09:07;12.20;;;3.10;;
23680;SDS011;62915;50.832;4.462;2022-11-25T13:11:55;16.88;;;3.67;;
23680;SDS011;62915;50.832;4.462;2022-11-25T13:17:08;12.98;;;3.28;;
23680;SDS011;62915;50.832;4.462;2022-11-25T13:19:37;13.30;;;3.22;;
23680;SDS011;62915;50.832;4.462;2022-11-25T13:22:04;13.38;;;3.65;;
23680;SDS011;62915;50.832;4.462;2022-11-25T13:24:53;12.63;;;3.25;;
23680;SDS011;62915;50.832;4.462;2022-11-25T13:27:31;13.05;;;3.10;;
23680;SDS011;62915;50.832;4.462;2022-11-25T13:33:49;14.45;;;3.70;;
23680;SDS011;62915;50.832;4.462;2022-11-25T13:35:50;11.38;;;3.33;;
23680;SDS011;62915;50.832;4.462;2022-11-25T13:38:37;17.95;;;4.05;;
23680;SDS011;62915;50.832;4.462;2022-11-25T13:41:32;16.80;;;3.78;;
23680;SDS011;62915;50.832;4.462;2022-11-25T13:46:47;17.98;;;3.78;;
23680;SDS011;62915;50.832;4.462;2022-11-25T13:51:52;14.20;;;3.13;;
23680;SDS011;62915;50.832;4.462;2022-11-25T13:54:19;16.38;;;3.10;;
23680;SDS011;62915;50.832;4.462;2022-11-25T13:57:58;17.25;;;4.40;;
23680;SDS011;62915;50.832;4.462;2022-11-25T13:59:48;15.55;;;3.03;;
23680;SDS011;62915;50.832;4.462;2022-11-25T14:21:47;17.83;;;3.63;;
23680;SDS011;62915;50.832;4.462;2022-11-25T14:24:41;17.17;;;3.80;;
23680;SDS011;62915;50.832;4.462;2022-11-25T14:30:12;14.52;;;4.15;;
23680;SDS011;62915;50.832;4.462;2022-11-25T14:35:37;17.40;;;3.53;;
23680;SDS011;62915;50.832;4.462;2022-11-25T14:38:12;17.35;;;3.72;;
23680;SDS011;62915;50.832;4.462;2022-11-25T14:43:11;25.73;;;4.85;;
23680;SDS011;62915;50.832;4.462;2022-11-25T14:45:41;15.80;;;3.55;;
23680;SDS011;62915;50.832;4.462;2022-11-25T14:53:35;15.75;;;3.53;;
23680;SDS011;62915;50.832;4.462;2022-11-25T14:56:07;13.38;;;3.90;;
23680;SDS011;62915;50.832;4.462;2022-11-25T14:58:33;16.23;;;4.15;;
23680;SDS011;62915;50.832;4.462;2022-11-25T15:01:04;18.80;;;3.67;;
23680;SDS011;62915;50.832;4.462;2022-11-25T15:03:31;17.58;;;4.00;;
23680;SDS011;62915;50.832;4.462;2022-11-25T15:06:04;13.45;;;3.90;;
23680;SDS011;62915;50.832;4.462;2022-11-25T15:08:43;19.55;;;3.40;;
23680;SDS011;62915;50.832;4.462;2022-11-25T15:11:20;16.65;;;3.42;;
23680;SDS011;62915;50.832;4.462;2022-11-25T15:16:19;16.08;;;3.75;;
23680;SDS011;62915;50.832;4.462;2022-11-25T15:21:43;17.45;;;4.05;;
23680;SDS011;62915;50.832;4.462;2022-11-25T15:24:23;14.38;;;3.63;;
23680;SDS011;62915;50.832;4.462;2022-11-25T15:26:58;18.85;;;3.88;;
23680;SDS011;62915;50.832;4.462;2022-11-25T15:29:25;18.17;;;4.10;;
23680;SDS011;62915;50.832;4.462;2022-11-25T15:31:54;20.95;;;4.18;;
23680;SDS011;62915;50.832;4.462;2022-11-25T15:34:21;23.35;;;4.03;;
23680;SDS011;62915;50.832;4.462;2022-11-25T15:36:48;24.48;;;4.35;;
23680;SDS011;62915;50.832;4.462;2022-11-25T15:42:13;20.23;;;3.45;;
23680;SDS011;62915;50.832;4.462;2022-11-25T15:44:43;15.30;;;3.65;;
23680;SDS011;62915;50.832;4.462;2022-11-25T15:47:27;18.60;;;3.90;;
23680;SDS011;62915;50.832;4.462;2022-11-25T15:49:59;24.95;;;4.30;;
23680;SDS011;62915;50.832;4.462;2022-11-25T15:52:32;13.20;;;4.13;;
23680;SDS011;62915;50.832;4.462;2022-11-25T15:55:06;17.83;;;4.13;;
23680;SDS011;62915;50.832;4.462;2022-11-25T15:57:42;13.82;;;3.90;;
23680;SDS011;62915;50.832;4.462;2022-11-25T16:00:20;17.23;;;4.40;;
23680;SDS011;62915;50.832;4.462;2022-11-25T16:07:39;20.45;;;5.65;;
23680;SDS011;62915;50.832;4.462;2022-11-25T16:10:20;22.00;;;5.88;;
23680;SDS011;62915;50.832;4.462;2022-11-25T16:15:45;19.05;;;6.40;;
23680;SDS011;62915;50.832;4.462;2022-11-25T16:18:21;22.55;;;6.43;;
23680;SDS011;62915;50.832;4.462;2022-11-25T16:20:54;16.23;;;6.10;;
23680;SDS011;62915;50.832;4.462;2022-11-25T16:23:23;22.65;;;6.90;;
23680;SDS011;62915;50.832;4.462;2022-11-25T16:25:50;23.85;;;8.10;;
23680;SDS011;62915;50.832;4.462;2022-11-25T16:28:27;32.78;;;7.97;;
23680;SDS011;62915;50.832;4.462;2022-11-25T16:30:52;22.13;;;8.68;;
23680;SDS011;62915;50.832;4.462;2022-11-25T16:33:22;22.83;;;8.32;;
23680;SDS011;62915;50.832;4.462;2022-11-25T16:35:49;22.85;;;10.00;;
23680;SDS011;62915;50.832;4.462;2022-11-25T16:38:15;27.27;;;11.27;;
23680;SDS011;62915;50.832;4.462;2022-11-25T16:40:40;20.92;;;8.88;;
23680;SDS011;62915;50.832;4.462;2022-11-25T16:43:22;25.95;;;9.65;;
23680;SDS011;62915;50.832;4.462;2022-11-25T16:45:51;23.58;;;9.05;;
23680;SDS011;62915;50.832;4.462;2022-11-25T16:48:19;19.40;;;9.68;;
23680;SDS011;62915;50.832;4.462;2022-11-25T16:50:46;22.73;;;9.57;;
23680;SDS011;62915;50.832;4.462;2022-11-25T16:53:12;26.98;;;9.07;;
23680;SDS011;62915;50.832;4.462;2022-11-25T16:55:39;23.88;;;8.63;;
23680;SDS011;62915;50.832;4.462;2022-11-25T16:58:16;23.00;;;8.93;;
23680;SDS011;62915;50.832;4.462;2022-11-25T17:00:46;24.13;;;8.75;;
23680;SDS011;62915;50.832;4.462;2022-11-25T17:03:15;24.95;;;8.30;;
23680;SDS011;62915;50.832;4.462;2022-11-25T17:05:42;19.30;;;7.55;;
23680;SDS011;62915;50.832;4.462;2022-11-25T17:08:08;17.20;;;6.47;;
23680;SDS011;62915;50.832;4.462;2022-11-25T17:10:33;20.27;;;7.22;;
23680;SDS011;62915;50.832;4.462;2022-11-25T17:12:59;20.40;;;6.15;;
23680;SDS011;62915;50.832;4.462;2022-11-25T17:15:29;17.90;;;5.80;;
23680;SDS011;62915;50.832;4.462;2022-11-25T17:17:58;31.85;;;7.85;;
23680;SDS011;62915;50.832;4.462;2022-11-25T17:20:25;26.50;;;11.48;;
23680;SDS011;62915;50.832;4.462;2022-11-25T17:22:51;24.48;;;9.68;;
23680;SDS011;62915;50.832;4.462;2022-11-25T17:25:18;36.20;;;13.73;;
23680;SDS011;62915;50.832;4.462;2022-11-25T17:27:45;37.75;;;16.20;;
23680;SDS011;62915;50.832;4.462;2022-11-25T17:30:17;34.20;;;14.48;;
23680;SDS011;62915;50.832;4.462;2022-11-25T17:33:12;30.55;;;13.10;;
23680;SDS011;62915;50.832;4.462;2022-11-25T17:35:40;37.40;;;14.82;;
23680;SDS011;62915;50.832;4.462;2022-11-25T17:38:10;32.85;;;12.70;;
23680;SDS011;62915;50.832;4.462;2022-11-25T17:40:38;43.63;;;18.10;;